sensor_id;sensor_type;location;lat;lon;timestamp;pressure;altitude;pressure_sealevel;temperature;humidity
56568;BME280;42456;49.956;20.004;2022-09-09T00:02:01;97979.61;;;18.66;80.22
56568;BME280;42456;49.956;20.004;2022-09-09T00:04:51;97981.37;;;18.61;80.17
56568;BME280;42456;49.956;20.004;2022-09-09T00:07:29;97981.37;;;18.61;80.17
56568;BME280;42456;49.956;20.004;2022-09-09T00:13:17;97983.50;;;18.61;80.32
56568;BME280;42456;49.956;20.004;2022-09-09T00:21:43;97971.24;;;18.54;80.48
56568;BME280;42456;49.956;20.004;2022-09-09T00:24:23;97973.77;;;18.50;80.49
56568;BME280;42456;49.956;20.004;2022-09-09T00:35:39;97984.64;;;18.39;80.74
56568;BME280;42456;49.956;20.004;2022-09-09T00:38:25;97976.86;;;18.38;80.88
56568;BME280;42456;49.956;20.004;2022-09-09T00:46:54;97991.03;;;18.34;80.90
56568;BME280;42456;49.956;20.004;2022-09-09T00:52:40;97997.63;;;18.29;80.92
56568;BME280;42456;49.956;20.004;2022-09-09T00:55:21;98000.13;;;18.28;80.95
56568;BME280;42456;49.956;20.004;2022-09-09T00:57:55;97999.38;;;18.28;81.06
56568;BME280;42456;49.956;20.004;2022-09-09T01:00:30;98003.45;;;18.28;81.04
56568;BME280;42456;49.956;20.004;2022-09-09T01:11:41;97998.18;;;18.25;80.87
56568;BME280;42456;49.956;20.004;2022-09-09T01:28:27;98012.75;;;18.13;81.02
56568;BME280;42456;49.956;20.004;2022-09-09T01:30:55;98023.41;;;18.12;81.00
56568;BME280;42456;49.956;20.004;2022-09-09T01:33:22;98021.67;;;18.10;81.00
56568;BME280;42456;49.956;20.004;2022-09-09T01:38:24;98032.73;;;18.07;81.00
56568;BME280;42456;49.956;20.004;2022-09-09T01:40:52;98031.37;;;18.07;80.98
56568;BME280;42456;49.956;20.004;2022-09-09T01:43:22;98033.11;;;18.06;80.94
56568;BME280;42456;49.956;20.004;2022-09-09T01:45:53;98041.09;;;18.05;80.97
56568;BME280;42456;49.956;20.004;2022-09-09T01:48:21;98037.95;;;18.03;80.94
56568;BME280;42456;49.956;20.004;2022-09-09T01:50:49;98044.77;;;18.03;80.92
56568;BME280;42456;49.956;20.004;2022-09-09T01:53:18;98044.77;;;18.03;80.98
56568;BME280;42456;49.956;20.004;2022-09-09T01:55:56;98047.30;;;18.02;80.95
56568;BME280;42456;49.956;20.004;2022-09-09T02:03:54;98057.61;;;18.02;80.95
56568;BME280;42456;49.956;20.004;2022-09-09T02:06:39;98060.30;;;17.99;81.00
56568;BME280;42456;49.956;20.004;2022-09-09T02:09:07;98064.00;;;18.00;81.07
56568;BME280;42456;49.956;20.004;2022-09-09T02:11:36;98062.23;;;17.98;81.07
56568;BME280;42456;49.956;20.004;2022-09-09T02:16:44;98064.58;;;17.96;81.07
56568;BME280;42456;49.956;20.004;2022-09-09T02:19:15;98073.69;;;17.94;81.05
56568;BME280;42456;49.956;20.004;2022-09-09T02:21:46;98075.84;;;17.95;81.09
56568;BME280;42456;49.956;20.004;2022-09-09T02:24:16;98075.44;;;17.93;81.08
56568;BME280;42456;49.956;20.004;2022-09-09T02:26:44;98076.41;;;17.91;80.99
56568;BME280;42456;49.956;20.004;2022-09-09T02:29:18;98079.67;;;17.87;81.06
56568;BME280;42456;49.956;20.004;2022-09-09T02:31:47;98079.08;;;17.84;81.07
56568;BME280;42456;49.956;20.004;2022-09-09T02:34:17;98079.84;;;17.81;81.07
56568;BME280;42456;49.956;20.004;2022-09-09T02:36:47;98080.03;;;17.78;81.15
56568;BME280;42456;49.956;20.004;2022-09-09T02:39:14;98077.28;;;17.75;81.14
56568;BME280;42456;49.956;20.004;2022-09-09T02:41:42;98083.70;;;17.73;81.23
56568;BME280;42456;49.956;20.004;2022-09-09T02:44:13;98088.73;;;17.71;81.19
56568;BME280;42456;49.956;20.004;2022-09-09T02:50:04;98092.36;;;17.62;81.22
56568;BME280;42456;49.956;20.004;2022-09-09T02:55:43;98103.16;;;17.51;81.31
56568;BME280;42456;49.956;20.004;2022-09-09T02:58:13;98109.73;;;17.47;81.41
56568;BME280;42456;49.956;20.004;2022-09-09T03:00:49;98109.92;;;17.44;81.62
56568;BME280;42456;49.956;20.004;2022-09-09T03:03:18;98111.27;;;17.44;81.74
56568;BME280;42456;49.956;20.004;2022-09-09T03:05:45;98111.05;;;17.43;81.80
56568;BME280;42456;49.956;20.004;2022-09-09T03:08:12;98110.11;;;17.45;81.82
56568;BME280;42456;49.956;20.004;2022-09-09T03:10:39;98120.79;;;17.44;81.71
56568;BME280;42456;49.956;20.004;2022-09-09T03:13:05;98113.13;;;17.40;81.58
56568;BME280;42456;49.956;20.004;2022-09-09T03:15:32;98117.39;;;17.38;81.69
56568;BME280;42456;49.956;20.004;2022-09-09T03:18:00;98123.02;;;17.35;81.66
56568;BME280;42456;49.956;20.004;2022-09-09T03:20:28;98120.83;;;17.31;81.61
56568;BME280;42456;49.956;20.004;2022-09-09T03:22:56;98111.30;;;17.28;81.52
56568;BME280;42456;49.956;20.004;2022-09-09T03:25:23;98114.55;;;17.24;81.57
56568;BME280;42456;49.956;20.004;2022-09-09T03:27:50;98108.13;;;17.19;81.59
56568;BME280;42456;49.956;20.004;2022-09-09T03:30:19;98113.89;;;17.14;81.55
56568;BME280;42456;49.956;20.004;2022-09-09T03:32:46;98111.73;;;17.10;81.60
56568;BME280;42456;49.956;20.004;2022-09-09T03:35:13;98106.62;;;17.05;81.64
56568;BME280;42456;49.956;20.004;2022-09-09T03:37:40;98106.81;;;17.02;81.67
56568;BME280;42456;49.956;20.004;2022-09-09T03:40:08;98111.63;;;16.99;81.73
56568;BME280;42456;49.956;20.004;2022-09-09T03:42:38;98111.22;;;16.97;81.65
56568;BME280;42456;49.956;20.004;2022-09-09T03:45:06;98110.41;;;16.93;81.66
56568;BME280;42456;49.956;20.004;2022-09-09T03:47:34;98110.17;;;16.88;81.62
56568;BME280;42456;49.956;20.004;2022-09-09T03:50:01;98116.35;;;16.85;81.64
56568;BME280;42456;49.956;20.004;2022-09-09T03:52:27;98110.87;;;16.82;81.65
56568;BME280;42456;49.956;20.004;2022-09-09T03:54:55;98116.06;;;16.77;81.63
56568;BME280;42456;49.956;20.004;2022-09-09T03:57:22;98111.95;;;16.74;81.75
56568;BME280;42456;49.956;20.004;2022-09-09T03:59:48;98123.17;;;16.72;81.80
56568;BME280;42456;49.956;20.004;2022-09-09T04:02:15;98119.09;;;16.69;81.78
56568;BME280;42456;49.956;20.004;2022-09-09T04:04:41;98113.23;;;16.67;81.84
56568;BME280;42456;49.956;20.004;2022-09-09T04:07:07;98114.77;;;16.64;81.95
56568;BME280;42456;49.956;20.004;2022-09-09T04:09:34;98120.34;;;16.62;81.88
56568;BME280;42456;49.956;20.004;2022-09-09T04:12:00;98125.76;;;16.58;81.84
56568;BME280;42456;49.956;20.004;2022-09-09T04:14:27;98125.14;;;16.55;81.98
56568;BME280;42456;49.956;20.004;2022-09-09T04:16:54;98124.72;;;16.53;82.09
56568;BME280;42456;49.956;20.004;2022-09-09T04:19:22;98128.74;;;16.50;82.03
56568;BME280;42456;49.956;20.004;2022-09-09T04:21:49;98128.35;;;16.48;82.06
56568;BME280;42456;49.956;20.004;2022-09-09T04:24:17;98131.44;;;16.46;82.11
56568;BME280;42456;49.956;20.004;2022-09-09T04:26:44;98127.73;;;16.45;82.06
56568;BME280;42456;49.956;20.004;2022-09-09T04:29:11;98124.03;;;16.43;82.10
56568;BME280;42456;49.956;20.004;2022-09-09T04:31:37;98127.51;;;16.44;82.14
56568;BME280;42456;49.956;20.004;2022-09-09T04:34:05;98123.77;;;16.42;82.09
56568;BME280;42456;49.956;20.004;2022-09-09T04:36:32;98123.58;;;16.41;81.99
56568;BME280;42456;49.956;20.004;2022-09-09T04:38:58;98126.09;;;16.40;82.00
56568;BME280;42456;49.956;20.004;2022-09-09T04:41:24;98128.81;;;16.40;81.89
56568;BME280;42456;49.956;20.004;2022-09-09T04:43:51;98129.38;;;16.40;81.91
56568;BME280;42456;49.956;20.004;2022-09-09T04:46:20;98126.75;;;16.43;82.08
56568;BME280;42456;49.956;20.004;2022-09-09T04:48:49;98130.08;;;16.46;82.09
56568;BME280;42456;49.956;20.004;2022-09-09T04:51:16;98125.41;;;16.47;82.16
56568;BME280;42456;49.956;20.004;2022-09-09T04:53:42;98134.39;;;16.51;82.26
56568;BME280;42456;49.956;20.004;2022-09-09T04:56:11;98135.77;;;16.54;82.06
56568;BME280;42456;49.956;20.004;2022-09-09T04:58:39;98132.69;;;16.56;81.79
56568;BME280;42456;49.956;20.004;2022-09-09T05:01:15;98136.77;;;16.56;81.48
56568;BME280;42456;49.956;20.004;2022-09-09T05:03:43;98142.79;;;16.55;81.27
56568;BME280;42456;49.956;20.004;2022-09-09T05:06:18;98148.41;;;16.56;81.43
56568;BME280;42456;49.956;20.004;2022-09-09T05:08:46;98152.73;;;16.61;81.50
56568;BME280;42456;49.956;20.004;2022-09-09T05:11:15;98158.05;;;16.67;81.46
56568;BME280;42456;49.956;20.004;2022-09-09T05:13:50;98154.64;;;16.73;81.51
56568;BME280;42456;49.956;20.004;2022-09-09T05:16:17;98156.67;;;16.83;81.42
56568;BME280;42456;49.956;20.004;2022-09-09T05:18:44;98153.45;;;16.91;81.31
56568;BME280;42456;49.956;20.004;2022-09-09T05:21:13;98156.48;;;17.03;81.29
56568;BME280;42456;49.956;20.004;2022-09-09T05:23:40;98156.02;;;17.14;81.20
56568;BME280;42456;49.956;20.004;2022-09-09T05:26:11;98162.10;;;17.20;80.91
56568;BME280;42456;49.956;20.004;2022-09-09T05:28:38;98156.68;;;17.24;80.66
56568;BME280;42456;49.956;20.004;2022-09-09T05:31:07;98156.11;;;17.24;80.54
56568;BME280;42456;49.956;20.004;2022-09-09T05:33:35;98160.56;;;17.23;80.40
56568;BME280;42456;49.956;20.004;2022-09-09T05:36:05;98156.86;;;17.21;80.40
56568;BME280;42456;49.956;20.004;2022-09-09T05:38:34;98158.64;;;17.23;80.44
56568;BME280;42456;49.956;20.004;2022-09-09T05:41:02;98158.27;;;17.25;80.46
56568;BME280;42456;49.956;20.004;2022-09-09T05:43:29;98148.94;;;17.26;80.42
56568;BME280;42456;49.956;20.004;2022-09-09T05:46:05;98160.09;;;17.34;80.46
56568;BME280;42456;49.956;20.004;2022-09-09T05:48:36;98160.30;;;17.55;80.89
56568;BME280;42456;49.956;20.004;2022-09-09T05:51:05;98164.73;;;17.77;81.20
56568;BME280;42456;49.956;20.004;2022-09-09T05:53:33;98163.90;;;18.00;81.30
56568;BME280;42456;49.956;20.004;2022-09-09T05:56:04;98166.59;;;18.23;81.29
56568;BME280;42456;49.956;20.004;2022-09-09T05:58:33;98170.61;;;18.47;81.08
56568;BME280;42456;49.956;20.004;2022-09-09T06:01:07;98175.38;;;18.71;80.90
56568;BME280;42456;49.956;20.004;2022-09-09T06:03:38;98178.00;;;18.98;80.70
56568;BME280;42456;49.956;20.004;2022-09-09T06:06:07;98177.45;;;19.23;80.17
56568;BME280;42456;49.956;20.004;2022-09-09T06:08:37;98169.91;;;19.47;79.52
56568;BME280;42456;49.956;20.004;2022-09-09T06:11:10;98179.27;;;19.64;78.93
56568;BME280;42456;49.956;20.004;2022-09-09T06:13:41;98182.77;;;19.82;78.39
56568;BME280;42456;49.956;20.004;2022-09-09T06:16:12;98184.13;;;19.96;77.97
56568;BME280;42456;49.956;20.004;2022-09-09T06:18:41;98188.22;;;20.06;77.59
56568;BME280;42456;49.956;20.004;2022-09-09T06:21:24;98186.47;;;20.22;77.13
56568;BME280;42456;49.956;20.004;2022-09-09T06:23:48;98185.84;;;20.33;76.92
56568;BME280;42456;49.956;20.004;2022-09-09T06:26:18;98195.77;;;20.45;76.31
56568;BME280;42456;49.956;20.004;2022-09-09T06:28:46;98195.91;;;20.57;76.14
56568;BME280;42456;49.956;20.004;2022-09-09T06:31:14;98191.77;;;20.71;75.85
56568;BME280;42456;49.956;20.004;2022-09-09T06:33:53;98181.33;;;20.88;75.31
56568;BME280;42456;49.956;20.004;2022-09-09T06:36:25;98184.98;;;21.07;75.19
56568;BME280;42456;49.956;20.004;2022-09-09T06:38:54;98181.56;;;21.22;74.38
56568;BME280;42456;49.956;20.004;2022-09-09T06:41:23;98183.83;;;21.34;73.68
56568;BME280;42456;49.956;20.004;2022-09-09T06:43:52;98185.93;;;21.41;73.03
56568;BME280;42456;49.956;20.004;2022-09-09T06:46:23;98188.61;;;21.48;72.84
56568;BME280;42456;49.956;20.004;2022-09-09T06:48:54;98186.42;;;21.55;71.72
56568;BME280;42456;49.956;20.004;2022-09-09T06:51:24;98193.98;;;21.62;71.51
56568;BME280;42456;49.956;20.004;2022-09-09T06:53:52;98186.10;;;21.75;71.49
56568;BME280;42456;49.956;20.004;2022-09-09T06:56:25;98181.30;;;21.86;71.16
56568;BME280;42456;49.956;20.004;2022-09-09T06:58:58;98182.81;;;21.90;70.91
56568;BME280;42456;49.956;20.004;2022-09-09T07:01:27;98183.53;;;21.98;70.97
56568;BME280;42456;49.956;20.004;2022-09-09T07:03:57;98183.73;;;21.99;70.39
56568;BME280;42456;49.956;20.004;2022-09-09T07:06:32;98180.19;;;22.02;69.83
56568;BME280;42456;49.956;20.004;2022-09-09T07:09:03;98180.11;;;22.09;69.63
56568;BME280;42456;49.956;20.004;2022-09-09T07:11:32;98182.74;;;22.19;69.52
56568;BME280;42456;49.956;20.004;2022-09-09T07:14:01;98183.04;;;22.28;69.24
56568;BME280;42456;49.956;20.004;2022-09-09T07:16:27;98180.36;;;22.40;69.30
56568;BME280;42456;49.956;20.004;2022-09-09T07:18:55;98180.30;;;22.47;69.02
56568;BME280;42456;49.956;20.004;2022-09-09T07:21:25;98181.78;;;22.55;68.10
56568;BME280;42456;49.956;20.004;2022-09-09T07:23:52;98183.41;;;22.68;68.42
56568;BME280;42456;49.956;20.004;2022-09-09T07:26:20;98177.80;;;22.78;68.11
56568;BME280;42456;49.956;20.004;2022-09-09T07:28:48;98176.39;;;22.82;67.57
56568;BME280;42456;49.956;20.004;2022-09-09T07:31:18;98173.30;;;22.91;67.49
56568;BME280;42456;49.956;20.004;2022-09-09T07:33:46;98168.09;;;23.00;67.37
56568;BME280;42456;49.956;20.004;2022-09-09T07:36:19;98173.59;;;23.12;66.64
56568;BME280;42456;49.956;20.004;2022-09-09T07:38:53;98170.98;;;23.16;66.03
56568;BME280;42456;49.956;20.004;2022-09-09T07:41:27;98179.77;;;23.19;65.32
56568;BME280;42456;49.956;20.004;2022-09-09T07:44:03;98183.16;;;23.15;65.04
56568;BME280;42456;49.956;20.004;2022-09-09T07:46:32;98186.39;;;23.10;64.56
56568;BME280;42456;49.956;20.004;2022-09-09T07:48:59;98183.72;;;23.03;64.34
56568;BME280;42456;49.956;20.004;2022-09-09T07:51:29;98189.00;;;23.06;64.95
56568;BME280;42456;49.956;20.004;2022-09-09T07:54:05;98190.41;;;23.02;64.77
56568;BME280;42456;49.956;20.004;2022-09-09T07:56:35;98187.22;;;22.92;64.08
56568;BME280;42456;49.956;20.004;2022-09-09T07:59:03;98189.41;;;22.89;64.47
56568;BME280;42456;49.956;20.004;2022-09-09T08:01:39;98187.91;;;22.85;64.43
56568;BME280;42456;49.956;20.004;2022-09-09T08:04:15;98182.28;;;22.80;64.02
56568;BME280;42456;49.956;20.004;2022-09-09T08:07:06;98186.43;;;22.77;64.03
56568;BME280;42456;49.956;20.004;2022-09-09T08:09:18;98193.97;;;22.69;64.02
56568;BME280;42456;49.956;20.004;2022-09-09T08:11:45;98196.53;;;22.68;63.66
56568;BME280;42456;49.956;20.004;2022-09-09T08:14:13;98193.69;;;22.75;64.22
56568;BME280;42456;49.956;20.004;2022-09-09T08:16:42;98204.67;;;22.90;64.85
56568;BME280;42456;49.956;20.004;2022-09-09T08:19:10;98195.48;;;23.04;64.74
56568;BME280;42456;49.956;20.004;2022-09-09T08:21:38;98201.00;;;23.15;64.09
56568;BME280;42456;49.956;20.004;2022-09-09T08:24:05;98204.11;;;23.17;63.63
56568;BME280;42456;49.956;20.004;2022-09-09T08:26:37;98199.33;;;23.25;63.38
56568;BME280;42456;49.956;20.004;2022-09-09T08:29:09;98209.24;;;23.30;63.43
56568;BME280;42456;49.956;20.004;2022-09-09T08:31:38;98201.85;;;23.39;62.83
56568;BME280;42456;49.956;20.004;2022-09-09T08:34:09;98206.36;;;23.52;62.61
56568;BME280;42456;49.956;20.004;2022-09-09T08:36:44;98200.91;;;23.64;62.27
56568;BME280;42456;49.956;20.004;2022-09-09T08:39:13;98203.81;;;23.76;61.20
56568;BME280;42456;49.956;20.004;2022-09-09T08:47:39;98209.34;;;24.11;59.17
56568;BME280;42456;49.956;20.004;2022-09-09T08:53:14;98216.94;;;24.03;59.15
56568;BME280;42456;49.956;20.004;2022-09-09T08:55:59;98215.63;;;24.12;58.89
56568;BME280;42456;49.956;20.004;2022-09-09T08:58:28;98215.08;;;24.20;59.18
56568;BME280;42456;49.956;20.004;2022-09-09T09:04:10;98216.09;;;24.30;58.97
56568;BME280;42456;49.956;20.004;2022-09-09T09:12:44;98217.02;;;24.43;57.78
56568;BME280;42456;49.956;20.004;2022-09-09T09:15:28;98224.93;;;24.41;57.84
56568;BME280;42456;49.956;20.004;2022-09-09T09:17:56;98215.00;;;24.47;58.21
56568;BME280;42456;49.956;20.004;2022-09-09T09:23:25;98213.27;;;24.64;56.02
56568;BME280;42456;49.956;20.004;2022-09-09T09:25:52;98211.08;;;24.67;56.02
56568;BME280;42456;49.956;20.004;2022-09-09T09:28:26;98217.53;;;24.69;56.05
56568;BME280;42456;49.956;20.004;2022-09-09T09:30:59;98219.44;;;24.72;56.45
56568;BME280;42456;49.956;20.004;2022-09-09T09:36:07;98221.52;;;24.64;56.01
56568;BME280;42456;49.956;20.004;2022-09-09T09:38:35;98220.66;;;24.48;53.56
56568;BME280;42456;49.956;20.004;2022-09-09T09:41:03;98221.64;;;24.26;54.44
56568;BME280;42456;49.956;20.004;2022-09-09T09:43:35;98221.07;;;24.15;54.86
56568;BME280;42456;49.956;20.004;2022-09-09T09:46:05;98216.47;;;24.09;54.94
56568;BME280;42456;49.956;20.004;2022-09-09T09:48:35;98214.42;;;24.13;55.41
56568;BME280;42456;49.956;20.004;2022-09-09T09:51:06;98219.92;;;24.13;55.05
56568;BME280;42456;49.956;20.004;2022-09-09T09:53:35;98214.12;;;24.19;55.75
56568;BME280;42456;49.956;20.004;2022-09-09T10:01:28;98207.37;;;24.35;54.82
56568;BME280;42456;49.956;20.004;2022-09-09T10:06:46;98207.59;;;24.44;54.46
56568;BME280;42456;49.956;20.004;2022-09-09T10:15:10;98197.38;;;24.75;53.90
56568;BME280;42456;49.956;20.004;2022-09-09T10:21:09;98203.61;;;24.87;54.03
56568;BME280;42456;49.956;20.004;2022-09-09T10:23:56;98199.65;;;24.88;53.37
56568;BME280;42456;49.956;20.004;2022-09-09T10:30:00;98210.05;;;24.58;50.63
56568;BME280;42456;49.956;20.004;2022-09-09T10:32:36;98203.10;;;24.42;50.98
56568;BME280;42456;49.956;20.004;2022-09-09T10:52:15;98212.02;;;24.26;50.29
56568;BME280;42456;49.956;20.004;2022-09-09T10:57:46;98206.92;;;24.48;51.36
56568;BME280;42456;49.956;20.004;2022-09-09T11:00:19;98205.92;;;24.58;50.33
56568;BME280;42456;49.956;20.004;2022-09-09T11:03:00;98202.86;;;24.64;49.96
56568;BME280;42456;49.956;20.004;2022-09-09T11:05:41;98211.66;;;24.78;50.41
56568;BME280;42456;49.956;20.004;2022-09-09T11:08:20;98202.08;;;24.94;50.80
56568;BME280;42456;49.956;20.004;2022-09-09T11:13:58;98202.34;;;25.27;50.05
56568;BME280;42456;49.956;20.004;2022-09-09T11:16:40;98197.57;;;25.39;49.50
56568;BME280;42456;49.956;20.004;2022-09-09T11:19:36;98202.22;;;25.42;48.93
56568;BME280;42456;49.956;20.004;2022-09-09T11:42:22;98191.05;;;25.73;46.91
56568;BME280;42456;49.956;20.004;2022-09-09T11:44:50;98194.24;;;25.80;47.12
56568;BME280;42456;49.956;20.004;2022-09-09T11:47:29;98193.38;;;25.83;46.90
56568;BME280;42456;49.956;20.004;2022-09-09T11:50:26;98199.41;;;25.86;46.97
56568;BME280;42456;49.956;20.004;2022-09-09T11:52:45;98194.33;;;25.85;46.43
56568;BME280;42456;49.956;20.004;2022-09-09T11:55:28;98197.16;;;25.81;45.44
56568;BME280;42456;49.956;20.004;2022-09-09T11:58:06;98195.42;;;25.79;46.06
56568;BME280;42456;49.956;20.004;2022-09-09T12:00:40;98193.73;;;25.77;46.55
56568;BME280;42456;49.956;20.004;2022-09-09T12:08:58;98190.28;;;25.49;44.61
56568;BME280;42456;49.956;20.004;2022-09-09T12:11:32;98192.49;;;25.38;45.31
56568;BME280;42456;49.956;20.004;2022-09-09T12:14:00;98196.63;;;25.38;46.93
56568;BME280;42456;49.956;20.004;2022-09-09T12:16:29;98191.12;;;25.38;47.17
56568;BME280;42456;49.956;20.004;2022-09-09T12:19:22;98194.39;;;25.41;44.86
56568;BME280;42456;49.956;20.004;2022-09-09T12:22:06;98185.11;;;25.43;45.04
56568;BME280;42456;49.956;20.004;2022-09-09T12:24:37;98185.01;;;25.46;44.87
56568;BME280;42456;49.956;20.004;2022-09-09T12:32:42;98184.18;;;25.65;45.30
56568;BME280;42456;49.956;20.004;2022-09-09T12:35:26;98189.16;;;25.78;44.16
56568;BME280;42456;49.956;20.004;2022-09-09T12:37:55;98187.95;;;25.88;44.26
56568;BME280;42456;49.956;20.004;2022-09-09T12:40:29;98183.58;;;25.98;43.50
56568;BME280;42456;49.956;20.004;2022-09-09T12:42:58;98183.91;;;26.00;41.71
56568;BME280;42456;49.956;20.004;2022-09-09T12:45:30;98189.09;;;25.98;41.43
56568;BME280;42456;49.956;20.004;2022-09-09T12:48:03;98188.28;;;25.98;41.90
56568;BME280;42456;49.956;20.004;2022-09-09T12:50:34;98189.09;;;25.98;42.30
56568;BME280;42456;49.956;20.004;2022-09-09T12:53:06;98191.03;;;25.98;42.99
56568;BME280;42456;49.956;20.004;2022-09-09T12:55:38;98195.77;;;25.97;43.16
56568;BME280;42456;49.956;20.004;2022-09-09T12:58:06;98192.02;;;25.99;43.53
56568;BME280;42456;49.956;20.004;2022-09-09T13:00:34;98190.20;;;26.01;42.90
56568;BME280;42456;49.956;20.004;2022-09-09T13:03:13;98196.47;;;26.09;43.82
56568;BME280;42456;49.956;20.004;2022-09-09T13:05:37;98191.11;;;26.18;43.29
56568;BME280;42456;49.956;20.004;2022-09-09T13:08:08;98188.70;;;26.28;43.09
56568;BME280;42456;49.956;20.004;2022-09-09T13:10:40;98171.36;;;26.36;42.77
56568;BME280;42456;49.956;20.004;2022-09-09T13:13:17;98169.78;;;26.43;41.99
56568;BME280;42456;49.956;20.004;2022-09-09T13:15:56;98172.61;;;26.47;41.54
56568;BME280;42456;49.956;20.004;2022-09-09T13:18:30;98165.00;;;26.51;41.55
56568;BME280;42456;49.956;20.004;2022-09-09T13:21:00;98162.08;;;26.50;40.74
56568;BME280;42456;49.956;20.004;2022-09-09T13:23:36;98164.41;;;26.52;41.04
56568;BME280;42456;49.956;20.004;2022-09-09T13:26:26;98173.63;;;26.53;41.97
56568;BME280;42456;49.956;20.004;2022-09-09T13:28:54;98162.15;;;26.55;42.28
56568;BME280;42456;49.956;20.004;2022-09-09T13:31:29;98158.36;;;26.57;42.37
56568;BME280;42456;49.956;20.004;2022-09-09T13:33:58;98164.38;;;26.60;42.39
56568;BME280;42456;49.956;20.004;2022-09-09T13:36:29;98165.08;;;26.64;42.33
56568;BME280;42456;49.956;20.004;2022-09-09T13:39:02;98159.13;;;26.65;41.63
56568;BME280;42456;49.956;20.004;2022-09-09T13:41:42;98156.52;;;26.66;41.48
56568;BME280;42456;49.956;20.004;2022-09-09T13:44:25;98156.52;;;26.66;41.85
56568;BME280;42456;49.956;20.004;2022-09-09T13:47:17;98153.45;;;26.64;42.21
56568;BME280;42456;49.956;20.004;2022-09-09T13:49:32;98148.77;;;26.61;42.22
56568;BME280;42456;49.956;20.004;2022-09-09T13:52:10;98155.27;;;26.63;42.31
56568;BME280;42456;49.956;20.004;2022-09-09T13:54:41;98144.01;;;26.62;42.01
56568;BME280;42456;49.956;20.004;2022-09-09T13:57:22;98150.84;;;26.57;41.16
56568;BME280;42456;49.956;20.004;2022-09-09T13:59:52;98148.36;;;26.55;41.64
56568;BME280;42456;49.956;20.004;2022-09-09T14:02:20;98150.95;;;26.54;41.34
56568;BME280;42456;49.956;20.004;2022-09-09T14:04:48;98145.74;;;26.43;40.88
56568;BME280;42456;49.956;20.004;2022-09-09T14:07:18;98144.59;;;26.28;40.74
56568;BME280;42456;49.956;20.004;2022-09-09T14:09:44;98149.16;;;26.19;41.25
56568;BME280;42456;49.956;20.004;2022-09-09T14:12:13;98138.34;;;26.12;41.53
56568;BME280;42456;49.956;20.004;2022-09-09T14:14:41;98140.39;;;26.08;42.14
56568;BME280;42456;49.956;20.004;2022-09-09T14:17:10;98141.61;;;26.07;41.38
56568;BME280;42456;49.956;20.004;2022-09-09T14:19:37;98138.34;;;26.04;42.02
56568;BME280;42456;49.956;20.004;2022-09-09T14:22:03;98141.27;;;26.05;41.69
56568;BME280;42456;49.956;20.004;2022-09-09T14:24:29;98137.32;;;26.06;41.90
56568;BME280;42456;49.956;20.004;2022-09-09T14:26:55;98138.42;;;26.08;41.76
56568;BME280;42456;49.956;20.004;2022-09-09T14:29:22;98133.70;;;26.09;41.76
56568;BME280;42456;49.956;20.004;2022-09-09T14:31:48;98133.42;;;26.11;41.91
56568;BME280;42456;49.956;20.004;2022-09-09T14:34:14;98129.20;;;26.15;41.28
56568;BME280;42456;49.956;20.004;2022-09-09T14:36:40;98130.73;;;26.16;40.95
56568;BME280;42456;49.956;20.004;2022-09-09T14:39:07;98122.74;;;26.13;40.74
56568;BME280;42456;49.956;20.004;2022-09-09T14:41:34;98121.53;;;26.06;40.87
56568;BME280;42456;49.956;20.004;2022-09-09T14:44:00;98117.52;;;26.03;41.58
56568;BME280;42456;49.956;20.004;2022-09-09T14:46:27;98118.19;;;25.99;42.02
56568;BME280;42456;49.956;20.004;2022-09-09T14:48:53;98119.90;;;25.93;40.77
56568;BME280;42456;49.956;20.004;2022-09-09T14:51:22;98124.22;;;25.86;41.63
56568;BME280;42456;49.956;20.004;2022-09-09T14:53:53;98127.33;;;25.79;41.59
56568;BME280;42456;49.956;20.004;2022-09-09T14:56:25;98118.48;;;25.72;41.83
56568;BME280;42456;49.956;20.004;2022-09-09T14:58:54;98116.07;;;25.66;41.32
56568;BME280;42456;49.956;20.004;2022-09-09T15:01:22;98106.97;;;25.61;41.30
56568;BME280;42456;49.956;20.004;2022-09-09T15:03:52;98109.97;;;25.58;41.52
56568;BME280;42456;49.956;20.004;2022-09-09T15:06:20;98104.64;;;25.51;42.56
56568;BME280;42456;49.956;20.004;2022-09-09T15:08:50;98112.89;;;25.43;44.07
56568;BME280;42456;49.956;20.004;2022-09-09T15:11:18;98114.02;;;25.38;45.99
56568;BME280;42456;49.956;20.004;2022-09-09T15:13:46;98101.70;;;25.26;45.06
56568;BME280;42456;49.956;20.004;2022-09-09T15:16:16;98113.73;;;25.24;46.75
56568;BME280;42456;49.956;20.004;2022-09-09T15:18:44;98111.74;;;25.17;47.08
56568;BME280;42456;49.956;20.004;2022-09-09T15:21:13;98110.02;;;25.07;47.51
56568;BME280;42456;49.956;20.004;2022-09-09T15:23:42;98107.08;;;24.98;48.27
56568;BME280;42456;49.956;20.004;2022-09-09T15:26:09;98105.59;;;24.85;47.81
56568;BME280;42456;49.956;20.004;2022-09-09T15:28:37;98109.78;;;24.74;48.23
56568;BME280;42456;49.956;20.004;2022-09-09T15:31:15;98112.66;;;24.67;48.72
56568;BME280;42456;49.956;20.004;2022-09-09T15:33:54;98105.56;;;24.58;49.85
56568;BME280;42456;49.956;20.004;2022-09-09T15:36:32;98113.60;;;24.49;49.70
56568;BME280;42456;49.956;20.004;2022-09-09T15:39:03;98112.22;;;24.41;49.64
56568;BME280;42456;49.956;20.004;2022-09-09T15:41:31;98118.20;;;24.36;49.86
56568;BME280;42456;49.956;20.004;2022-09-09T15:43:59;98121.85;;;24.29;50.93
56568;BME280;42456;49.956;20.004;2022-09-09T15:46:36;98117.45;;;24.24;51.53
56568;BME280;42456;49.956;20.004;2022-09-09T15:51:52;98109.25;;;24.12;53.28
56568;BME280;42456;49.956;20.004;2022-09-09T15:54:21;98116.42;;;24.06;53.06
56568;BME280;42456;49.956;20.004;2022-09-09T15:56:54;98110.29;;;23.98;53.63
56568;BME280;42456;49.956;20.004;2022-09-09T15:59:24;98108.05;;;23.90;52.78